Time;durP1;ratioP1;P1;durP2;ratioP2;P2;SDS_P1;SDS_P2;PMS_P1;PMS_P2;Temp;Humidity;BMP_temperature;BMP_pressure;BME280_temperature;BME280_humidity;BME280_pressure;Samples;Min_cycle;Max_cycle;Signal;HPM_P1;HPM_P2
2022/12/09 00:02:20;;;;;;;21.03;9.97;;;;;;;6.09;100.00;94320.38;5092504;28;20333;-55
2022/12/09 00:04:45;;;;;;;14.83;8.77;;;;;;;6.21;100.00;94332.09;5074273;28;20212;-55
2022/12/09 00:07:11;;;;;;;17.00;8.47;;;;;;;6.22;100.00;94316.81;5092688;28;20215;-56
2022/12/09 00:09:36;;;;;;;17.17;9.00;;;;;;;6.61;100.00;94325.72;5092461;28;20287;-55
2022/12/09 00:12:02;;;;;;;15.13;8.10;;;;;;;6.24;100.00;94342.75;5092469;28;20218;-56
2022/12/09 00:14:28;;;;;;;15.70;8.33;;;;;;;6.27;100.00;94326.59;5092447;28;20218;-56
2022/12/09 00:16:53;;;;;;;14.70;8.77;;;;;;;6.58;100.00;94336.88;5092408;28;20610;-55
2022/12/09 00:19:18;;;;;;;14.63;8.30;;;;;;;6.21;100.00;94342.19;5092296;28;20203;-55
2022/12/09 00:21:44;;;;;;;15.20;8.93;;;;;;;6.11;100.00;94344.56;5092439;28;20213;-56
2022/12/09 00:24:12;;;;;;;14.50;9.03;;;;;;;6.35;100.00;94345.31;5092305;28;20753;-55
2022/12/09 00:26:38;;;;;;;12.77;7.60;;;;;;;6.65;100.00;94368.31;5092467;28;20211;-55
2022/12/09 00:29:04;;;;;;;14.90;8.83;;;;;;;6.47;100.00;94358.75;5073971;28;20196;-56
2022/12/09 00:31:32;;;;;;;17.53;9.13;;;;;;;6.49;100.00;94335.00;5092134;28;20206;-56
2022/12/09 00:34:00;;;;;;;17.43;9.97;;;;;;;6.42;100.00;94345.69;5091966;28;20188;-57
2022/12/09 00:36:26;;;;;;;15.17;8.73;;;;;;;6.43;100.00;94353.13;5092003;28;20776;-56
2022/12/09 00:38:53;;;;;;;14.00;8.33;;;;;;;6.58;100.00;94341.09;5091694;28;20249;-57
2022/12/09 00:41:19;;;;;;;13.90;7.93;;;;;;;6.64;100.00;94343.19;5091875;28;20192;-56
2022/12/09 00:43:45;;;;;;;19.27;8.67;;;;;;;6.48;100.00;94346.03;5091941;28;20195;-56
2022/12/09 00:46:12;;;;;;;16.60;6.97;;;;;;;6.52;100.00;94337.31;5091821;28;20200;-55
2022/12/09 00:48:38;;;;;;;12.67;7.43;;;;;;;6.77;100.00;94337.09;5091801;28;20295;-54
2022/12/09 00:51:05;;;;;;;17.40;7.63;;;;;;;6.95;100.00;94339.94;5091614;28;20295;-56
2022/12/09 00:53:31;;;;;;;12.27;6.97;;;;;;;7.05;100.00;94345.91;5091547;28;20199;-55
2022/12/09 00:55:57;;;;;;;13.73;7.27;;;;;;;6.87;100.00;94342.25;5092007;28;20274;-57
2022/12/09 00:58:23;;;;;;;12.63;7.53;;;;;;;6.88;100.00;94343.88;5091464;28;20196;-55
2022/12/09 01:00:50;;;;;;;15.97;8.53;;;;;;;6.70;100.00;94347.75;5091857;28;20212;-55
2022/12/09 01:03:16;;;;;;;14.47;7.97;;;;;;;6.79;100.00;94345.34;5091657;28;20287;-54
2022/12/09 01:05:42;;;;;;;13.53;7.93;;;;;;;7.16;100.00;94356.00;5091499;28;20295;-54
2022/12/09 01:08:09;;;;;;;14.93;8.07;;;;;;;7.27;100.00;94345.09;5090927;28;20306;-56
2022/12/09 01:10:36;;;;;;;14.87;7.80;;;;;;;7.17;100.00;94336.59;5091302;28;20274;-56
2022/12/09 01:13:02;;;;;;;19.57;8.90;;;;;;;6.86;100.00;94337.31;5091443;28;20196;-57
2022/12/09 01:15:28;;;;;;;16.03;8.47;;;;;;;6.91;100.00;94333.50;5091826;28;20294;-55
2022/12/09 01:17:53;;;;;;;12.13;7.43;;;;;;;7.12;100.00;94338.66;5091542;28;20184;-54
2022/12/09 01:20:18;;;;;;;18.43;7.47;;;;;;;7.09;100.00;94337.16;5091507;28;20257;-58
2022/12/09 01:22:45;;;;;;;16.73;7.37;;;;;;;7.23;100.00;94344.50;5091426;28;20192;-55
2022/12/09 01:25:11;;;;;;;15.80;8.40;;;;;;;7.11;100.00;94322.69;5091386;28;20208;-56
2022/12/09 01:27:36;;;;;;;14.57;7.87;;;;;;;6.81;100.00;94301.50;5091100;28;20216;-56
2022/12/09 01:30:02;;;;;;;13.77;7.67;;;;;;;7.18;100.00;94330.63;5091291;28;20219;-54
2022/12/09 01:32:27;;;;;;;13.43;6.67;;;;;;;7.24;100.00;94335.19;5091350;28;20191;-56
2022/12/09 01:34:53;;;;;;;16.73;6.73;;;;;;;7.14;100.00;94311.56;5090944;28;20222;-54
2022/12/09 01:37:18;;;;;;;16.93;7.20;;;;;;;7.33;100.00;94320.13;5091059;28;20238;-56
2022/12/09 01:39:44;;;;;;;13.03;7.00;;;;;;;7.12;100.00;94331.91;5072626;28;20306;-56
2022/12/09 01:42:18;;;;;;;14.33;7.97;;;;;;;6.95;100.00;94329.06;5090965;28;20192;-60
2022/12/09 01:45:34;;;;;;;14.13;7.83;;;;;;;7.08;100.00;94319.59;5091146;28;20742;-54
2022/12/09 01:48:02;;;;;;;14.37;6.93;;;;;;;7.39;100.00;94339.88;5018408;28;20256;-54
2022/12/09 01:50:28;;;;;;;12.30;7.57;;;;;;;7.30;100.00;94334.72;5091015;28;20281;-55
2022/12/09 01:52:54;;;;;;;14.63;7.00;;;;;;;7.26;100.00;94318.19;5090770;28;20642;-54
2022/12/09 01:55:20;;;;;;;13.27;6.90;;;;;;;7.48;100.00;94336.66;5090859;28;20212;-55
2022/12/09 01:57:46;;;;;;;11.57;6.90;;;;;;;7.21;100.00;94330.41;5090791;28;20198;-55
2022/12/09 02:00:12;;;;;;;10.73;7.20;;;;;;;6.83;100.00;94318.13;5090659;28;20220;-57
2022/12/09 02:02:40;;;;;;;14.23;8.53;;;;;;;6.79;100.00;94315.03;5090622;28;20177;-56
2022/12/09 02:05:06;;;;;;;17.80;8.70;;;;;;;6.94;100.00;94324.91;5089822;28;20269;-55
2022/12/09 02:07:33;;;;;;;13.93;8.37;;;;;;;6.68;100.00;94307.47;5090406;28;20212;-55
2022/12/09 02:09:58;;;;;;;17.13;8.10;;;;;;;6.76;100.00;94315.28;5090783;28;20219;-56
2022/12/09 02:12:33;;;;;;;15.07;8.37;;;;;;;7.22;100.00;94335.31;5090460;28;20180;-57
2022/12/09 02:15:24;;;;;;;12.23;7.80;;;;;;;7.24;100.00;94325.09;5090472;28;20211;-57
2022/12/09 02:17:55;;;;;;;13.47;7.43;;;;;;;7.23;100.00;94323.50;5079715;28;20575;-55
2022/12/09 02:20:42;;;;;;;15.63;8.03;;;;;;;7.40;100.00;94325.50;5074572;28;20216;-55
2022/12/09 02:23:14;;;;;;;15.73;7.83;;;;;;;7.17;100.00;94313.84;5094061;28;20266;-57
2022/12/09 02:26:06;;;;;;;14.20;7.90;;;;;;;6.59;100.00;94308.16;5094553;28;20208;-56
2022/12/09 02:28:44;;;;;;;13.63;8.00;;;;;;;7.03;100.00;94322.47;5094087;28;20216;-55
2022/12/09 02:31:28;;;;;;;15.67;8.27;;;;;;;7.08;100.00;94317.06;5094328;28;20216;-57
2022/12/09 02:34:11;;;;;;;16.83;7.80;;;;;;;6.94;100.00;94300.44;5093959;28;20207;-55
2022/12/09 02:36:48;;;;;;;14.73;7.80;;;;;;;6.97;100.00;94302.72;5094137;28;20187;-53
2022/12/09 02:39:14;;;;;;;14.37;8.43;;;;;;;7.11;100.00;94319.38;5093752;28;20212;-54
2022/12/09 02:41:42;;;;;;;18.53;8.47;;;;;;;7.32;100.00;94321.06;5093742;28;20535;-55
2022/12/09 02:44:16;;;;;;;15.33;8.57;;;;;;;7.33;100.00;94309.22;5093511;28;20211;-55
2022/12/09 02:46:43;;;;;;;18.43;9.53;;;;;;;7.35;100.00;94312.44;5093888;28;20187;-54
2022/12/09 02:49:10;;;;;;;16.07;8.27;;;;;;;7.28;100.00;94329.00;5093755;28;20246;-56
2022/12/09 02:51:40;;;;;;;16.03;8.80;;;;;;;7.29;100.00;94345.78;5093750;28;20207;-56
2022/12/09 02:54:18;;;;;;;16.67;9.23;;;;;;;7.36;100.00;94352.75;5093899;28;20205;-55
2022/12/09 02:56:57;;;;;;;19.70;9.10;;;;;;;7.08;100.00;94339.81;5093717;28;20202;-56
2022/12/09 02:59:29;;;;;;;13.20;7.73;;;;;;;6.82;100.00;94325.81;5093714;28;20215;-57
2022/12/09 03:02:11;;;;;;;16.03;8.53;;;;;;;6.57;100.00;94316.75;5093074;28;20196;-56
2022/12/09 03:04:39;;;;;;;15.73;8.53;;;;;;;6.63;100.00;94319.63;5093305;28;20311;-55
2022/12/09 03:07:30;;;;;;;14.47;8.97;;;;;;;6.69;100.00;94323.41;5093422;28;20191;-54
2022/12/09 03:10:07;;;;;;;14.37;9.03;;;;;;;6.74;100.00;94319.66;5093672;28;20295;-57
2022/12/09 03:12:34;;;;;;;16.03;9.23;;;;;;;6.51;100.00;94302.88;5093561;28;20207;-55
2022/12/09 03:15:04;;;;;;;17.77;10.60;;;;;;;6.25;100.00;94316.63;5093538;28;20216;-55
2022/12/09 03:17:34;;;;;;;16.07;8.97;;;;;;;6.40;100.00;94333.16;5075090;28;20657;-56
2022/12/09 03:20:07;;;;;;;21.70;9.10;;;;;;;6.59;100.00;94332.59;5093534;28;20753;-56
2022/12/09 03:22:34;;;;;;;18.13;9.30;;;;;;;6.76;100.00;94330.44;5093202;28;20278;-55
2022/12/09 03:25:00;;;;;;;17.90;9.03;;;;;;;6.98;100.00;94333.84;5093169;28;20196;-55
2022/12/09 03:27:31;;;;;;;18.00;8.80;;;;;;;6.99;100.00;94330.44;5093178;28;20211;-57
2022/12/09 03:30:00;;;;;;;16.47;9.50;;;;;;;7.16;100.00;94348.44;5092992;28;20216;-56
2022/12/09 03:32:28;;;;;;;18.20;9.10;;;;;;;7.07;100.00;94338.22;5093104;28;20199;-57
2022/12/09 03:35:01;;;;;;;17.73;9.37;;;;;;;6.98;100.00;94323.75;5093403;28;20290;-57
2022/12/09 03:37:29;;;;;;;18.07;8.60;;;;;;;6.63;100.00;94301.97;5093105;28;20212;-56
2022/12/09 03:39:57;;;;;;;17.60;8.83;;;;;;;6.77;100.00;94318.59;5093082;28;20308;-56
2022/12/09 03:42:32;;;;;;;19.00;9.63;;;;;;;6.99;100.00;94340.53;5092804;28;20192;-56
2022/12/09 03:45:04;;;;;;;15.57;9.27;;;;;;;6.79;100.00;94316.75;5093082;28;20218;-54
2022/12/09 03:47:29;;;;;;;16.03;9.30;;;;;;;6.76;100.00;94304.38;5092873;28;20200;-56
2022/12/09 03:49:55;;;;;;;18.10;9.10;;;;;;;7.06;100.00;94312.16;5092814;28;20208;-56
2022/12/09 03:53:04;;;;;;;13.87;9.13;;;;;;;7.01;100.00;94300.78;5093038;28;20267;-57
2022/12/09 03:55:38;;;;;;;17.63;9.63;;;;;;;6.67;100.00;94289.91;5075363;28;20261;-56
2022/12/09 03:58:06;;;;;;;21.20;10.90;;;;;;;6.85;100.00;94312.97;5092842;28;20188;-56
2022/12/09 04:00:36;;;;;;;21.13;10.13;;;;;;;7.23;100.00;94336.91;5092549;28;20203;-56
2022/12/09 04:03:02;;;;;;;19.57;9.20;;;;;;;7.24;100.00;94330.16;5092834;28;20192;-56
2022/12/09 04:05:28;;;;;;;19.10;9.37;;;;;;;6.98;100.00;94324.56;5092935;28;20227;-56
2022/12/09 04:07:54;;;;;;;20.63;10.07;;;;;;;6.91;100.00;94322.63;5092522;28;20207;-55
2022/12/09 04:10:19;;;;;;;20.30;10.23;;;;;;;7.03;100.00;94335.09;5092456;28;20636;-54
2022/12/09 04:12:45;;;;;;;22.93;10.73;;;;;;;7.19;100.00;94333.00;5092519;28;20195;-55
2022/12/09 04:15:10;;;;;;;20.50;11.23;;;;;;;7.31;100.00;94333.81;5092583;28;20367;-55
2022/12/09 04:17:36;;;;;;;16.93;10.17;;;;;;;7.24;100.00;94333.47;5092485;28;20271;-56
2022/12/09 04:20:02;;;;;;;16.77;9.67;;;;;;;7.18;100.00;94340.72;5092726;28;20220;-54
2022/12/09 04:22:28;;;;;;;17.70;9.30;;;;;;;6.97;100.00;94314.56;5092546;28;20216;-54
2022/12/09 04:24:54;;;;;;;15.77;8.70;;;;;;;6.51;100.00;94309.63;5092375;28;20600;-54
2022/12/09 04:27:19;;;;;;;18.60;9.90;;;;;;;6.60;100.00;94321.59;5092353;28;20754;-53
2022/12/09 04:29:45;;;;;;;16.33;9.17;;;;;;;6.99;100.00;94331.22;5092149;28;20210;-56
2022/12/09 04:32:10;;;;;;;18.13;8.33;;;;;;;6.90;100.00;94321.00;5092496;28;20188;-55
2022/12/09 04:34:36;;;;;;;19.10;8.33;;;;;;;7.03;100.00;94330.06;5092210;28;20577;-56
2022/12/09 04:37:01;;;;;;;18.03;8.87;;;;;;;6.63;100.00;94318.81;5092360;28;20631;-55
2022/12/09 04:39:26;;;;;;;18.13;9.33;;;;;;;6.75;100.00;94313.66;5092178;28;20231;-54
2022/12/09 04:41:52;;;;;;;16.40;8.50;;;;;;;7.00;100.00;94325.25;5091339;28;20249;-55
2022/12/09 04:44:17;;;;;;;15.97;9.13;;;;;;;6.69;100.00;94314.13;5091820;28;20287;-57
2022/12/09 04:46:43;;;;;;;15.77;8.97;;;;;;;6.93;100.00;94325.84;5092216;28;20649;-55
2022/12/09 04:49:08;;;;;;;20.83;9.50;;;;;;;7.01;100.00;94333.63;5091835;28;20224;-56
2022/12/09 04:51:33;;;;;;;16.30;9.37;;;;;;;6.80;100.00;94315.84;5091956;28;20192;-56
2022/12/09 04:53:59;;;;;;;15.03;8.33;;;;;;;7.08;100.00;94314.53;5091860;28;20181;-56
2022/12/09 04:56:25;;;;;;;15.73;9.17;;;;;;;7.26;100.00;94344.28;5091902;28;20230;-57
2022/12/09 04:58:51;;;;;;;17.07;8.70;;;;;;;7.18;100.00;94335.66;5091509;28;20184;-55
2022/12/09 05:01:19;;;;;;;18.90;10.10;;;;;;;6.94;100.00;94325.72;5091691;28;20248;-55
2022/12/09 05:03:50;;;;;;;18.13;10.10;;;;;;;6.90;100.00;94321.81;5091519;28;20279;-56
2022/12/09 05:06:16;;;;;;;17.50;10.20;;;;;;;7.11;100.00;94335.31;5091612;28;20192;-56
2022/12/09 05:08:41;;;;;;;19.10;9.53;;;;;;;7.05;100.00;94314.81;5091540;28;20200;-59
2022/12/09 05:11:07;;;;;;;17.83;10.77;;;;;;;7.32;100.00;94343.00;5091705;28;20246;-55
2022/12/09 05:13:33;;;;;;;20.47;10.83;;;;;;;7.30;100.00;94343.13;5091846;28;20184;-55
2022/12/09 05:16:07;;;;;;;30.07;11.77;;;;;;;7.34;100.00;94341.16;5091823;28;20204;-55
2022/12/09 05:18:33;;;;;;;23.23;12.40;;;;;;;7.31;100.00;94344.72;5091617;28;20248;-55
2022/12/09 05:20:58;;;;;;;23.30;13.53;;;;;;;7.44;100.00;94337.00;5091406;28;20250;-55
2022/12/09 05:23:24;;;;;;;24.37;13.40;;;;;;;7.21;100.00;94315.22;5091526;28;20180;-55
2022/12/09 05:25:50;;;;;;;26.30;11.63;;;;;;;7.40;100.00;94321.25;5091750;28;20219;-56
2022/12/09 05:28:15;;;;;;;25.43;11.57;;;;;;;7.53;100.00;94329.47;5091570;28;20580;-56
2022/12/09 05:30:42;;;;;;;25.90;12.60;;;;;;;7.13;100.00;94307.44;5091579;28;20341;-58
2022/12/09 05:33:08;;;;;;;22.20;12.20;;;;;;;7.09;100.00;94322.00;5091317;28;20217;-56
2022/12/09 05:35:33;;;;;;;23.03;11.60;;;;;;;7.26;100.00;94330.81;5091097;28;20243;-54
2022/12/09 05:37:59;;;;;;;23.27;11.33;;;;;;;7.39;100.00;94336.56;5091333;28;20284;-54
2022/12/09 05:40:24;;;;;;;26.47;11.47;;;;;;;7.31;100.00;94336.34;5091071;28;20212;-55
2022/12/09 05:42:50;;;;;;;22.17;11.40;;;;;;;7.49;100.00;94352.63;5091231;28;20665;-55
2022/12/09 05:45:15;;;;;;;20.40;11.07;;;;;;;7.21;100.00;94348.88;5091382;28;20277;-55
2022/12/09 05:47:41;;;;;;;16.93;10.83;;;;;;;7.28;100.00;94356.78;5091254;28;20203;-56
2022/12/09 05:50:07;;;;;;;20.77;11.20;;;;;;;7.51;100.00;94366.72;5091392;28;20216;-56
2022/12/09 05:52:34;;;;;;;22.33;10.67;;;;;;;7.53;100.00;94354.00;5091082;28;20184;-55
2022/12/09 05:55:03;;;;;;;25.57;11.80;;;;;;;7.50;100.00;94354.22;5091262;28;20212;-56
2022/12/09 05:57:28;;;;;;;22.83;11.73;;;;;;;7.59;100.00;94372.00;5091246;28;20219;-55
2022/12/09 05:59:54;;;;;;;20.47;10.60;;;;;;;7.82;100.00;94387.94;5090970;28;20285;-55
2022/12/09 06:02:19;;;;;;;31.90;15.17;;;;;;;7.85;100.00;94389.41;5090986;28;20184;-57
2022/12/09 06:04:45;;;;;;;26.90;14.73;;;;;;;7.85;100.00;94375.03;5072629;28;20212;-56
2022/12/09 06:07:10;;;;;;;30.23;15.00;;;;;;;7.89;100.00;94378.94;5090795;28;20212;-56
2022/12/09 06:09:36;;;;;;;35.87;16.60;;;;;;;7.80;100.00;94359.41;5090923;28;20219;-55
2022/12/09 06:12:02;;;;;;;33.50;16.20;;;;;;;7.80;100.00;94353.56;5090836;28;20257;-57
2022/12/09 06:14:28;;;;;;;28.87;16.67;;;;;;;7.66;100.00;94367.28;5090530;28;20212;-56
2022/12/09 06:16:53;;;;;;;42.00;15.03;;;;;;;7.52;100.00;94344.78;5090555;28;20184;-57
2022/12/09 06:19:18;;;;;;;37.00;16.63;;;;;;;7.51;100.00;94338.13;5090941;28;20208;-57
2022/12/09 06:21:44;;;;;;;35.77;17.30;;;;;;;7.50;100.00;94361.81;5090765;28;20173;-55
2022/12/09 06:24:10;;;;;;;28.73;14.70;;;;;;;7.44;100.00;94349.63;5090488;28;20227;-58
2022/12/09 06:26:35;;;;;;;32.80;14.63;;;;;;;7.99;100.00;94364.66;5090377;28;20203;-57
2022/12/09 06:29:01;;;;;;;30.77;16.17;;;;;;;7.62;100.00;94364.19;5090528;28;20204;-56
2022/12/09 06:31:27;;;;;;;33.70;15.37;;;;;;;7.42;100.00;94351.47;5090378;28;20237;-57
2022/12/09 06:33:53;;;;;;;29.07;15.30;;;;;;;7.67;100.00;94363.84;5090538;28;20184;-57
2022/12/09 06:36:18;;;;;;;30.90;14.93;;;;;;;7.79;100.00;94379.78;5090604;28;20248;-57
2022/12/09 06:38:44;;;;;;;32.87;14.87;;;;;;;7.70;100.00;94363.59;5090681;28;20180;-57
2022/12/09 06:41:12;;;;;;;27.87;14.80;;;;;;;7.93;100.00;94390.44;5090179;28;20675;-56
2022/12/09 06:43:38;;;;;;;32.80;15.83;;;;;;;7.96;100.00;94389.41;5090391;28;20180;-57
2022/12/09 06:46:11;;;;;;;29.70;14.07;;;;;;;8.08;100.00;94406.94;5090356;28;20196;-57
2022/12/09 06:48:36;;;;;;;26.30;13.80;;;;;;;8.25;100.00;94413.22;5090294;28;20204;-56
2022/12/09 06:51:02;;;;;;;35.47;15.93;;;;;;;8.18;100.00;94410.34;5090222;28;20208;-56
2022/12/09 06:53:27;;;;;;;27.77;15.47;;;;;;;8.05;100.00;94407.19;5072360;28;20686;-55
2022/12/09 06:55:53;;;;;;;24.27;14.37;;;;;;;8.00;100.00;94394.06;5090582;28;20216;-56
2022/12/09 06:58:18;;;;;;;31.00;14.93;;;;;;;7.72;100.00;94381.97;5097945;22;20185;-55
2022/12/09 07:00:44;;;;;;;29.87;15.90;;;;;;;7.34;100.00;94364.72;5090131;28;20220;-55
2022/12/09 07:03:11;;;;;;;25.63;16.57;;;;;;;7.73;100.00;94381.06;5090068;28;20256;-56
2022/12/09 07:05:37;;;;;;;25.93;14.53;;;;;;;7.58;100.00;94378.00;5091331;28;20211;-56
2022/12/09 07:08:02;;;;;;;28.53;14.80;;;;;;;7.51;100.00;94378.59;5093678;28;20200;-56
2022/12/09 07:10:28;;;;;;;28.30;14.27;;;;;;;7.45;100.00;94361.38;5075355;28;20214;-57
2022/12/09 07:12:53;;;;;;;25.80;13.57;;;;;;;7.67;100.00;94378.22;5093480;28;20665;-58
2022/12/09 07:15:18;;;;;;;23.40;13.33;;;;;;;7.78;100.00;94384.03;5093457;28;20315;-57
2022/12/09 07:17:44;;;;;;;20.80;11.83;;;;;;;7.71;100.00;94390.50;5093421;28;20241;-57
2022/12/09 07:20:10;;;;;;;24.73;11.87;;;;;;;8.00;100.00;94421.91;5093479;28;20200;-58
2022/12/09 07:22:35;;;;;;;27.43;12.70;;;;;;;8.03;100.00;94411.56;5093458;28;20656;-57
2022/12/09 07:25:01;;;;;;;20.33;12.07;;;;;;;7.87;100.00;94383.31;5093734;28;20258;-57
2022/12/09 07:27:26;;;;;;;27.50;13.23;;;;;;;7.96;100.00;94400.28;5093100;28;20638;-59
2022/12/09 07:29:51;;;;;;;38.47;15.50;;;;;;;7.77;100.00;94382.44;5093655;28;20723;-56
2022/12/09 07:32:17;;;;;;;28.83;13.77;;;;;;;7.97;100.00;94388.47;5093270;28;20267;-57
2022/12/09 07:34:42;;;;;;;22.33;13.40;;;;;;;7.85;100.00;94375.03;5093474;28;20227;-57
2022/12/09 07:37:07;;;;;;;26.43;11.83;;;;;;;8.10;100.00;94384.81;5093065;28;20704;-57
2022/12/09 07:39:33;;;;;;;22.83;12.23;;;;;;;8.09;100.00;94369.75;5093253;28;20208;-57
2022/12/09 07:41:58;;;;;;;57.17;23.37;;;;;;;7.81;100.00;94365.28;5093153;28;20199;-56
2022/12/09 07:44:27;;;;;;;29.27;14.17;;;;;;;7.99;100.00;94374.75;5093042;28;20215;-58
2022/12/09 07:46:53;;;;;;;27.30;13.23;;;;;;;8.25;100.00;94401.38;5074831;28;20665;-58
2022/12/09 07:49:19;;;;;;;44.50;17.70;;;;;;;8.14;100.00;94395.53;5092928;28;20219;-57
2022/12/09 07:51:45;;;;;;;26.50;12.97;;;;;;;8.19;100.00;94393.44;5093031;28;20196;-56
2022/12/09 07:54:16;;;;;;;26.30;13.33;;;;;;;8.47;100.00;94415.66;5092809;28;20538;-56
2022/12/09 07:56:41;;;;;;;48.23;19.03;;;;;;;8.19;100.00;94391.72;5092900;28;20261;-57
2022/12/09 07:59:08;;;;;;;32.93;12.00;;;;;;;8.48;100.00;94411.41;5093097;28;20239;-55
2022/12/09 08:01:34;;;;;;;24.57;11.20;;;;;;;8.48;100.00;94391.13;5092145;28;20646;-55
2022/12/09 08:04:00;;;;;;;28.53;14.27;;;;;;;8.37;100.00;94397.06;5090692;28;20642;-55
2022/12/09 08:06:27;;;;;;;23.10;12.00;;;;;;;8.63;100.00;94410.94;5092160;28;20192;-57
2022/12/09 08:08:56;;;;;;;29.77;12.10;;;;;;;8.58;100.00;94428.28;5074502;28;20257;-57
2022/12/09 08:11:24;;;;;;;24.27;13.10;;;;;;;8.27;100.00;94389.41;5092674;28;20180;-57
2022/12/09 08:13:50;;;;;;;42.47;15.50;;;;;;;8.41;100.00;94385.75;5092905;28;20640;-57
2022/12/09 08:16:18;;;;;;;23.90;11.97;;;;;;;8.70;100.00;94406.19;5092065;28;20270;-56
2022/12/09 08:18:44;;;;;;;22.33;11.90;;;;;;;8.71;100.00;94417.94;5092266;28;20188;-57
2022/12/09 08:21:15;;;;;;;29.43;12.40;;;;;;;8.62;100.00;94431.34;5092388;28;20253;-56
2022/12/09 08:23:41;;;;;;;27.43;11.53;;;;;;;8.48;100.00;94425.66;5092901;28;20181;-58
2022/12/09 08:26:10;;;;;;;30.30;12.17;;;;;;;8.41;100.00;94413.59;5092017;28;20218;-57
2022/12/09 08:28:36;;;;;;;20.60;11.03;;;;;;;8.64;100.00;94442.97;5092454;28;20239;-56
2022/12/09 08:31:09;;;;;;;30.40;13.10;;;;;;;8.61;100.00;94422.13;5092157;28;20658;-56
2022/12/09 08:33:34;;;;;;;22.63;10.50;;;;;;;8.95;100.00;94446.34;5092271;28;20569;-56
2022/12/09 08:36:01;;;;;;;31.87;12.93;;;;;;;8.74;100.00;94438.78;5092082;28;20291;-55
2022/12/09 08:38:27;;;;;;;23.40;9.93;;;;;;;8.63;100.00;94416.03;5092080;28;20638;-56
2022/12/09 08:40:52;;;;;;;36.90;14.63;;;;;;;8.73;100.00;94418.59;5073964;28;20223;-55
2022/12/09 08:43:18;;;;;;;40.17;15.60;;;;;;;8.54;100.00;94385.56;5092212;28;20626;-56
2022/12/09 08:45:43;;;;;;;28.07;11.43;;;;;;;8.76;100.00;94410.78;5092056;28;20643;-56
2022/12/09 08:48:08;;;;;;;21.63;10.50;;;;;;;8.97;100.00;94424.19;5091948;28;20211;-56
2022/12/09 08:50:34;;;;;;;26.40;9.83;;;;;;;9.10;100.00;94410.41;5092078;28;20219;-55
2022/12/09 08:53:00;;;;;;;29.53;10.07;;;;;;;9.22;100.00;94408.59;5092051;28;20563;-57
2022/12/09 08:55:26;;;;;;;20.23;9.17;;;;;;;9.21;100.00;94445.03;5073821;28;20238;-57
2022/12/09 08:57:51;;;;;;;19.20;8.73;;;;;;;9.16;100.00;94426.84;5091897;28;20668;-58
2022/12/09 09:00:18;;;;;;;23.13;9.33;;;;;;;9.52;100.00;94446.59;5091875;28;20231;-57
2022/12/09 09:02:44;;;;;;;25.67;10.83;;;;;;;9.81;100.00;94455.13;5092061;28;20268;-55
2022/12/09 09:05:09;;;;;;;21.43;9.70;;;;;;;10.27;100.00;94441.03;5091979;28;20228;-57
2022/12/09 09:07:35;;;;;;;21.10;9.50;;;;;;;10.74;100.00;94452.94;5091602;28;20200;-55
2022/12/09 09:10:01;;;;;;;21.43;10.40;;;;;;;10.29;100.00;94434.06;5091812;28;20208;-55
2022/12/09 09:12:27;;;;;;;35.37;11.30;;;;;;;11.01;100.00;94487.81;5091681;28;20195;-61
2022/12/09 09:14:53;;;;;;;32.33;12.97;;;;;;;11.06;100.00;94478.03;5073422;28;20254;-57
2022/12/09 09:17:22;;;;;;;28.80;12.27;;;;;;;10.75;100.00;94477.41;5092048;28;20188;-57
2022/12/09 09:19:48;;;;;;;30.27;11.47;;;;;;;10.49;100.00;94421.25;5091292;28;20242;-57
2022/12/09 09:22:13;;;;;;;29.67;14.47;;;;;;;10.49;100.00;94422.97;5091472;28;20686;-56
2022/12/09 09:24:39;;;;;;;28.37;13.60;;;;;;;10.11;100.00;94368.72;5091863;28;20214;-58
2022/12/09 09:27:04;;;;;;;27.97;12.67;;;;;;;10.35;100.00;94410.69;5091332;28;20184;-58
2022/12/09 09:29:29;;;;;;;32.80;14.20;;;;;;;10.40;100.00;94378.06;5091334;28;20256;-57
2022/12/09 09:31:56;;;;;;;34.70;13.53;;;;;;;10.01;100.00;94354.38;5091364;28;20223;-56
2022/12/09 09:34:23;;;;;;;29.50;13.83;;;;;;;10.20;100.00;94362.00;5091474;28;20222;-56
2022/12/09 09:36:50;;;;;;;30.63;12.60;;;;;;;11.19;100.00;94428.44;5091217;28;20630;-56
2022/12/09 09:39:16;;;;;;;33.23;14.27;;;;;;;11.14;100.00;94420.44;5090982;28;20219;-57
2022/12/09 09:41:55;;;;;;;34.03;14.20;;;;;;;10.91;100.00;94408.97;5091153;28;20209;-57
2022/12/09 09:44:38;;;;;;;34.07;15.27;;;;;;;11.01;100.00;94408.97;5091318;28;20203;-58
2022/12/09 09:47:16;;;;;;;38.23;16.70;;;;;;;10.53;100.00;94355.69;5091029;28;20191;-57
2022/12/09 09:49:52;;;;;;;38.13;15.93;;;;;;;10.78;100.00;94358.44;5091507;28;20261;-57
2022/12/09 09:52:21;;;;;;;45.07;20.23;;;;;;;10.69;100.00;94350.84;5091191;28;20218;-58
2022/12/09 09:54:46;;;;;;;46.90;21.90;;;;;;;10.87;100.00;94367.78;5090912;28;20215;-57
2022/12/09 09:57:26;;;;;;;43.00;21.27;;;;;;;10.93;100.00;94372.31;5090953;28;20194;-57
2022/12/09 10:00:19;;;;;;;44.57;21.03;;;;;;;11.02;100.00;94368.13;5091254;28;20260;-57
2022/12/09 10:02:57;;;;;;;50.23;22.53;;;;;;;10.91;100.00;94317.44;5091135;28;20188;-57
2022/12/09 10:05:30;;;;;;;46.17;23.93;;;;;;;11.03;100.00;94339.19;5091152;28;20741;-58
2022/12/09 10:08:16;;;;;;;52.30;24.63;;;;;;;10.89;100.00;94293.88;5090917;28;20237;-61
2022/12/09 10:11:17;;;;;;;54.10;25.83;;;;;;;10.48;100.00;94263.81;5091254;28;20208;-53
2022/12/09 10:14:25;;;;;;;43.67;23.90;;;;;;;10.53;100.00;94259.13;5090911;28;20566;-56
2022/12/09 10:17:32;;;;;;;53.20;27.20;;;;;;;10.53;100.00;94266.75;5090894;28;20265;-56
2022/12/09 10:20:04;;;;;;;51.90;27.33;;;;;;;10.66;100.00;94275.66;5090882;28;20207;-56
2022/12/09 10:22:41;;;;;;;57.73;30.30;;;;;;;10.27;100.00;94235.25;5090852;28;20216;-57
2022/12/09 10:25:19;;;;;;;54.17;29.87;;;;;;;10.66;100.00;94254.53;5090603;28;20211;-57
2022/12/09 10:28:22;;;;;;;51.90;28.17;;;;;;;10.55;100.00;94235.16;5090616;28;20220;-56
2022/12/09 10:30:49;;;;;;;62.90;30.07;;;;;;;10.41;100.00;94227.19;5090780;28;20211;-57
2022/12/09 10:33:17;;;;;;;53.87;28.93;;;;;;;10.16;100.00;94193.03;5090668;28;20226;-56
2022/12/09 10:35:43;;;;;;;55.43;28.63;;;;;;;10.24;100.00;94213.47;5072282;28;20208;-55
2022/12/09 10:38:14;;;;;;;54.50;28.90;;;;;;;9.70;100.00;94170.97;5090358;28;20710;-61
2022/12/09 10:40:45;;;;;;;60.10;29.30;;;;;;;10.06;100.00;94202.41;5091676;28;20223;-55
2022/12/09 10:43:39;;;;;;;55.00;27.13;;;;;;;9.81;100.00;94170.81;5093980;28;20198;-55
2022/12/09 10:46:16;;;;;;;48.00;26.33;;;;;;;10.10;100.00;94194.41;5094004;28;20226;-55
2022/12/09 10:48:42;;;;;;;58.93;26.47;;;;;;;10.22;100.00;94186.63;5093940;28;20703;-57
2022/12/09 10:51:12;;;;;;;48.87;25.67;;;;;;;10.26;100.00;94198.13;5093739;28;20208;-55
2022/12/09 10:53:46;;;;;;;49.63;24.90;;;;;;;10.20;100.00;94158.03;5093989;28;20262;-55
2022/12/09 10:56:23;;;;;;;57.00;25.20;;;;;;;10.28;100.00;94194.47;5093278;28;20202;-57
2022/12/09 10:58:48;;;;;;;49.50;24.80;;;;;;;10.02;100.00;94155.38;5093420;28;20195;-58
2022/12/09 11:01:15;;;;;;;50.83;23.80;;;;;;;10.10;100.00;94176.63;5093676;28;20269;-57
2022/12/09 11:03:46;;;;;;;52.63;22.93;;;;;;;10.12;100.00;94176.47;5094037;28;20274;-56
2022/12/09 11:06:23;;;;;;;41.07;22.30;;;;;;;10.31;100.00;94206.09;5093804;28;20187;-55
2022/12/09 11:08:57;;;;;;;43.03;22.60;;;;;;;10.19;100.00;94207.22;5075149;28;20219;-57
2022/12/09 11:11:39;;;;;;;44.00;21.13;;;;;;;10.01;100.00;94164.75;5093577;28;20210;-55
2022/12/09 11:14:28;;;;;;;43.43;21.13;;;;;;;10.19;100.00;94176.72;5093591;28;20196;-56
2022/12/09 11:17:17;;;;;;;45.47;20.87;;;;;;;10.40;100.00;94192.56;5093357;28;20189;-56
2022/12/09 11:19:49;;;;;;;44.93;22.77;;;;;;;10.01;100.00;94152.06;5080217;28;20295;-59
2022/12/09 11:22:32;;;;;;;50.03;21.97;;;;;;;9.96;100.00;94150.84;5093418;28;20185;-57
2022/12/09 11:25:10;;;;;;;42.13;20.37;;;;;;;10.22;100.00;94156.94;5093609;28;20211;-56
2022/12/09 11:27:39;;;;;;;39.97;18.03;;;;;;;10.50;100.00;94190.78;5093322;28;20315;-55
2022/12/09 11:30:12;;;;;;;40.20;16.00;;;;;;;10.66;100.00;94236.75;5093264;28;20211;-56